Terminal Aerodrome Forecast
Issued by NWS Wichita, KS

Home | Current Version | Previous Version | Text Only | Print | Product List | Glossary On
Versions: 1 2 3 4 5 6 7 8 9 10 11 12 13 14 15 16 17
000
FTUS43 KICT 241736
TAFICT
TAF
KICT 241736Z 2418/2518 19013G19KT P6SM FEW040 BKN130
     FM242200 18010KT P6SM VCTS SCT040CB BKN100
     FM250300 VRB04KT P6SM VCTS SCT025 OVC050CB
     FM250900 08007KT P6SM VCSH OVC025=

USA.gov is the U.S. government's official web portal to all federal, state and local government web resources and services.